sensor_id;sensor_type;location;lat;lon;timestamp;P1;durP1;ratioP1;P2;durP2;ratioP2
24411;SDS011;12544;46.760;15.942;2023-04-30T00:00:14;3.58;;;3.28;;
24411;SDS011;12544;46.760;15.942;2023-04-30T00:02:39;2.20;;;2.00;;
24411;SDS011;12544;46.760;15.942;2023-04-30T00:05:05;2.70;;;1.83;;
24411;SDS011;12544;46.760;15.942;2023-04-30T00:07:31;1.77;;;1.67;;
24411;SDS011;12544;46.760;15.942;2023-04-30T00:09:56;1.30;;;1.20;;
24411;SDS011;12544;46.760;15.942;2023-04-30T00:12:22;1.70;;;1.60;;
24411;SDS011;12544;46.760;15.942;2023-04-30T00:14:48;1.60;;;1.50;;
24411;SDS011;12544;46.760;15.942;2023-04-30T00:17:14;1.63;;;1.45;;
24411;SDS011;12544;46.760;15.942;2023-04-30T00:19:40;1.55;;;1.45;;
24411;SDS011;12544;46.760;15.942;2023-04-30T00:22:06;1.40;;;1.30;;
24411;SDS011;12544;46.760;15.942;2023-04-30T00:24:32;1.30;;;1.20;;
24411;SDS011;12544;46.760;15.942;2023-04-30T00:26:58;1.83;;;1.40;;
24411;SDS011;12544;46.760;15.942;2023-04-30T00:29:23;1.65;;;1.38;;
24411;SDS011;12544;46.760;15.942;2023-04-30T00:31:49;4.30;;;3.05;;
24411;SDS011;12544;46.760;15.942;2023-04-30T00:34:14;4.50;;;3.38;;
24411;SDS011;12544;46.760;15.942;2023-04-30T00:36:40;4.28;;;3.88;;
24411;SDS011;12544;46.760;15.942;2023-04-30T00:39:06;4.60;;;4.15;;
24411;SDS011;12544;46.760;15.942;2023-04-30T00:41:32;6.18;;;3.65;;
24411;SDS011;12544;46.760;15.942;2023-04-30T00:43:59;7.85;;;3.85;;
24411;SDS011;12544;46.760;15.942;2023-04-30T00:46:26;4.43;;;3.92;;
24411;SDS011;12544;46.760;15.942;2023-04-30T00:48:52;4.75;;;3.92;;
24411;SDS011;12544;46.760;15.942;2023-04-30T00:51:18;3.17;;;2.88;;
24411;SDS011;12544;46.760;15.942;2023-04-30T00:53:44;1.80;;;1.70;;
24411;SDS011;12544;46.760;15.942;2023-04-30T00:56:11;2.03;;;1.83;;
24411;SDS011;12544;46.760;15.942;2023-04-30T00:58:40;1.55;;;1.45;;
24411;SDS011;12544;46.760;15.942;2023-04-30T01:01:06;1.80;;;1.70;;
24411;SDS011;12544;46.760;15.942;2023-04-30T01:03:32;2.00;;;1.75;;
24411;SDS011;12544;46.760;15.942;2023-04-30T01:05:59;2.67;;;2.05;;
24411;SDS011;12544;46.760;15.942;2023-04-30T01:08:27;7.70;;;2.40;;
24411;SDS011;12544;46.760;15.942;2023-04-30T01:13:44;2.22;;;1.52;;
24411;SDS011;12544;46.760;15.942;2023-04-30T01:18:59;1.80;;;1.70;;
24411;SDS011;12544;46.760;15.942;2023-04-30T01:21:29;2.15;;;1.90;;
24411;SDS011;12544;46.760;15.942;2023-04-30T01:29:48;1.98;;;1.88;;
24411;SDS011;12544;46.760;15.942;2023-04-30T01:32:16;2.20;;;2.00;;
24411;SDS011;12544;46.760;15.942;2023-04-30T01:34:42;2.72;;;2.05;;
24411;SDS011;12544;46.760;15.942;2023-04-30T01:42:21;2.83;;;2.63;;
24411;SDS011;12544;46.760;15.942;2023-04-30T01:47:38;3.00;;;2.70;;
24411;SDS011;12544;46.760;15.942;2023-04-30T01:52:53;3.75;;;2.78;;
24411;SDS011;12544;46.760;15.942;2023-04-30T01:55:33;2.97;;;2.78;;
24411;SDS011;12544;46.760;15.942;2023-04-30T01:58:08;4.20;;;3.28;;
24411;SDS011;12544;46.760;15.942;2023-04-30T02:03:01;3.38;;;3.08;;
24411;SDS011;12544;46.760;15.942;2023-04-30T02:05:27;3.30;;;3.05;;
24411;SDS011;12544;46.760;15.942;2023-04-30T02:07:53;3.00;;;2.80;;
24411;SDS011;12544;46.760;15.942;2023-04-30T02:10:23;3.42;;;3.13;;
24411;SDS011;12544;46.760;15.942;2023-04-30T02:12:50;3.00;;;2.80;;
24411;SDS011;12544;46.760;15.942;2023-04-30T02:15:16;3.13;;;2.83;;
24411;SDS011;12544;46.760;15.942;2023-04-30T02:17:42;3.78;;;2.75;;
24411;SDS011;12544;46.760;15.942;2023-04-30T02:20:08;3.20;;;2.88;;
24411;SDS011;12544;46.760;15.942;2023-04-30T02:22:35;2.92;;;2.55;;
24411;SDS011;12544;46.760;15.942;2023-04-30T02:25:01;2.63;;;2.42;;
24411;SDS011;12544;46.760;15.942;2023-04-30T02:27:28;2.75;;;2.55;;
24411;SDS011;12544;46.760;15.942;2023-04-30T02:29:55;3.97;;;2.63;;
24411;SDS011;12544;46.760;15.942;2023-04-30T02:32:21;2.97;;;2.67;;
24411;SDS011;12544;46.760;15.942;2023-04-30T02:34:46;2.97;;;2.78;;
24411;SDS011;12544;46.760;15.942;2023-04-30T02:37:12;3.35;;;3.15;;
24411;SDS011;12544;46.760;15.942;2023-04-30T02:39:38;4.13;;;3.72;;
24411;SDS011;12544;46.760;15.942;2023-04-30T02:42:05;4.43;;;3.80;;
24411;SDS011;12544;46.760;15.942;2023-04-30T02:44:31;3.88;;;3.50;;
24411;SDS011;12544;46.760;15.942;2023-04-30T02:46:57;3.92;;;3.63;;
24411;SDS011;12544;46.760;15.942;2023-04-30T02:49:23;4.07;;;3.67;;
24411;SDS011;12544;46.760;15.942;2023-04-30T02:51:49;4.65;;;3.05;;
24411;SDS011;12544;46.760;15.942;2023-04-30T02:54:15;4.18;;;3.20;;
24411;SDS011;12544;46.760;15.942;2023-04-30T02:56:40;4.18;;;3.88;;
24411;SDS011;12544;46.760;15.942;2023-04-30T02:59:08;3.60;;;3.30;;
24411;SDS011;12544;46.760;15.942;2023-04-30T03:01:34;4.35;;;3.83;;
24411;SDS011;12544;46.760;15.942;2023-04-30T03:03:59;4.25;;;3.85;;
24411;SDS011;12544;46.760;15.942;2023-04-30T03:06:27;4.18;;;3.80;;
24411;SDS011;12544;46.760;15.942;2023-04-30T03:08:53;3.88;;;3.58;;
24411;SDS011;12544;46.760;15.942;2023-04-30T03:11:19;4.50;;;4.07;;
24411;SDS011;12544;46.760;15.942;2023-04-30T03:13:45;5.80;;;3.95;;
24411;SDS011;12544;46.760;15.942;2023-04-30T03:16:15;4.43;;;4.13;;
24411;SDS011;12544;46.760;15.942;2023-04-30T03:18:42;3.55;;;3.25;;
24411;SDS011;12544;46.760;15.942;2023-04-30T03:21:07;8.60;;;4.15;;
24411;SDS011;12544;46.760;15.942;2023-04-30T03:23:33;4.22;;;3.83;;
24411;SDS011;12544;46.760;15.942;2023-04-30T03:25:59;5.28;;;4.20;;
24411;SDS011;12544;46.760;15.942;2023-04-30T03:28:25;3.67;;;3.38;;
24411;SDS011;12544;46.760;15.942;2023-04-30T03:30:51;4.55;;;4.20;;
24411;SDS011;12544;46.760;15.942;2023-04-30T03:33:16;3.85;;;3.55;;
24411;SDS011;12544;46.760;15.942;2023-04-30T03:35:42;4.75;;;4.30;;
24411;SDS011;12544;46.760;15.942;2023-04-30T03:38:08;4.13;;;3.72;;
24411;SDS011;12544;46.760;15.942;2023-04-30T03:40:34;4.63;;;4.18;;
24411;SDS011;12544;46.760;15.942;2023-04-30T03:42:59;4.68;;;4.18;;
24411;SDS011;12544;46.760;15.942;2023-04-30T03:45:25;4.35;;;4.05;;
24411;SDS011;12544;46.760;15.942;2023-04-30T03:47:50;4.72;;;4.32;;
24411;SDS011;12544;46.760;15.942;2023-04-30T03:50:17;4.28;;;3.80;;
24411;SDS011;12544;46.760;15.942;2023-04-30T03:52:42;5.15;;;4.65;;
24411;SDS011;12544;46.760;15.942;2023-04-30T03:55:09;4.00;;;3.60;;
24411;SDS011;12544;46.760;15.942;2023-04-30T03:57:35;4.10;;;3.80;;
24411;SDS011;12544;46.760;15.942;2023-04-30T04:00:01;4.60;;;4.22;;
24411;SDS011;12544;46.760;15.942;2023-04-30T04:02:31;4.82;;;4.43;;
24411;SDS011;12544;46.760;15.942;2023-04-30T04:04:57;4.93;;;4.53;;
24411;SDS011;12544;46.760;15.942;2023-04-30T04:07:23;5.00;;;4.07;;
24411;SDS011;12544;46.760;15.942;2023-04-30T04:09:48;4.38;;;4.05;;
24411;SDS011;12544;46.760;15.942;2023-04-30T04:12:14;4.72;;;4.03;;
24411;SDS011;12544;46.760;15.942;2023-04-30T04:14:40;5.07;;;4.57;;
24411;SDS011;12544;46.760;15.942;2023-04-30T04:17:06;4.20;;;3.80;;
24411;SDS011;12544;46.760;15.942;2023-04-30T04:19:32;4.43;;;4.10;;
24411;SDS011;12544;46.760;15.942;2023-04-30T04:21:58;4.22;;;3.92;;
24411;SDS011;12544;46.760;15.942;2023-04-30T04:24:24;4.60;;;4.20;;
24411;SDS011;12544;46.760;15.942;2023-04-30T04:26:49;4.45;;;4.15;;
24411;SDS011;12544;46.760;15.942;2023-04-30T04:29:16;4.97;;;3.92;;
24411;SDS011;12544;46.760;15.942;2023-04-30T04:31:46;4.03;;;3.70;;
24411;SDS011;12544;46.760;15.942;2023-04-30T04:34:13;5.03;;;4.50;;
24411;SDS011;12544;46.760;15.942;2023-04-30T04:36:38;4.97;;;4.45;;
24411;SDS011;12544;46.760;15.942;2023-04-30T04:39:04;5.03;;;4.63;;
24411;SDS011;12544;46.760;15.942;2023-04-30T04:41:31;5.25;;;4.85;;
24411;SDS011;12544;46.760;15.942;2023-04-30T04:43:58;5.07;;;4.68;;
24411;SDS011;12544;46.760;15.942;2023-04-30T04:46:24;6.30;;;5.70;;
24411;SDS011;12544;46.760;15.942;2023-04-30T04:48:50;7.25;;;6.55;;
24411;SDS011;12544;46.760;15.942;2023-04-30T04:51:17;5.18;;;4.68;;
24411;SDS011;12544;46.760;15.942;2023-04-30T04:53:42;5.65;;;5.15;;
24411;SDS011;12544;46.760;15.942;2023-04-30T04:56:08;5.53;;;5.03;;
24411;SDS011;12544;46.760;15.942;2023-04-30T04:58:34;4.85;;;4.45;;
24411;SDS011;12544;46.760;15.942;2023-04-30T05:00:59;5.32;;;4.93;;
24411;SDS011;12544;46.760;15.942;2023-04-30T05:03:26;6.00;;;5.50;;
24411;SDS011;12544;46.760;15.942;2023-04-30T05:05:52;6.28;;;5.72;;
24411;SDS011;12544;46.760;15.942;2023-04-30T05:08:18;5.53;;;5.03;;
24411;SDS011;12544;46.760;15.942;2023-04-30T05:10:43;6.95;;;6.25;;
24411;SDS011;12544;46.760;15.942;2023-04-30T05:13:09;6.90;;;6.32;;
24411;SDS011;12544;46.760;15.942;2023-04-30T05:15:35;6.82;;;6.13;;
24411;SDS011;12544;46.760;15.942;2023-04-30T05:18:01;7.20;;;6.22;;
24411;SDS011;12544;46.760;15.942;2023-04-30T05:20:27;7.45;;;6.75;;
24411;SDS011;12544;46.760;15.942;2023-04-30T05:22:52;8.13;;;7.43;;
24411;SDS011;12544;46.760;15.942;2023-04-30T05:25:18;7.60;;;6.20;;
24411;SDS011;12544;46.760;15.942;2023-04-30T05:27:43;6.68;;;6.18;;
24411;SDS011;12544;46.760;15.942;2023-04-30T05:30:09;6.93;;;6.13;;
24411;SDS011;12544;46.760;15.942;2023-04-30T05:32:35;7.07;;;6.47;;
24411;SDS011;12544;46.760;15.942;2023-04-30T05:35:01;6.80;;;6.18;;
24411;SDS011;12544;46.760;15.942;2023-04-30T05:37:27;8.35;;;6.65;;
24411;SDS011;12544;46.760;15.942;2023-04-30T05:39:52;7.18;;;6.47;;
24411;SDS011;12544;46.760;15.942;2023-04-30T05:42:18;6.82;;;5.85;;
24411;SDS011;12544;46.760;15.942;2023-04-30T05:44:44;6.85;;;6.32;;
24411;SDS011;12544;46.760;15.942;2023-04-30T05:47:10;7.25;;;6.55;;
24411;SDS011;12544;46.760;15.942;2023-04-30T05:49:36;7.32;;;6.60;;
24411;SDS011;12544;46.760;15.942;2023-04-30T05:52:02;6.75;;;6.15;;
24411;SDS011;12544;46.760;15.942;2023-04-30T05:54:28;6.63;;;5.93;;
24411;SDS011;12544;46.760;15.942;2023-04-30T05:56:54;5.95;;;5.45;;
24411;SDS011;12544;46.760;15.942;2023-04-30T05:59:20;7.63;;;6.93;;
24411;SDS011;12544;46.760;15.942;2023-04-30T06:01:47;6.88;;;6.25;;
24411;SDS011;12544;46.760;15.942;2023-04-30T06:04:13;6.53;;;5.93;;
24411;SDS011;12544;46.760;15.942;2023-04-30T06:06:39;7.90;;;7.10;;
24411;SDS011;12544;46.760;15.942;2023-04-30T06:09:04;8.88;;;6.25;;
24411;SDS011;12544;46.760;15.942;2023-04-30T06:11:30;6.80;;;6.20;;
24411;SDS011;12544;46.760;15.942;2023-04-30T06:13:57;6.65;;;6.15;;
24411;SDS011;12544;46.760;15.942;2023-04-30T06:16:22;6.75;;;6.15;;
24411;SDS011;12544;46.760;15.942;2023-04-30T06:18:48;7.45;;;6.82;;
24411;SDS011;12544;46.760;15.942;2023-04-30T06:21:14;6.97;;;6.38;;
24411;SDS011;12544;46.760;15.942;2023-04-30T06:23:40;7.50;;;6.80;;
24411;SDS011;12544;46.760;15.942;2023-04-30T06:26:05;7.45;;;6.75;;
24411;SDS011;12544;46.760;15.942;2023-04-30T06:28:31;7.05;;;6.35;;
24411;SDS011;12544;46.760;15.942;2023-04-30T06:30:57;7.93;;;7.13;;
24411;SDS011;12544;46.760;15.942;2023-04-30T06:33:23;7.35;;;6.65;;
24411;SDS011;12544;46.760;15.942;2023-04-30T06:35:48;7.68;;;6.97;;
24411;SDS011;12544;46.760;15.942;2023-04-30T06:38:19;6.15;;;5.55;;
24411;SDS011;12544;46.760;15.942;2023-04-30T06:40:45;7.13;;;6.50;;
24411;SDS011;12544;46.760;15.942;2023-04-30T06:43:10;7.32;;;6.65;;
24411;SDS011;12544;46.760;15.942;2023-04-30T06:45:36;8.10;;;5.85;;
24411;SDS011;12544;46.760;15.942;2023-04-30T06:48:02;7.10;;;6.50;;
24411;SDS011;12544;46.760;15.942;2023-04-30T06:50:28;6.63;;;5.97;;
24411;SDS011;12544;46.760;15.942;2023-04-30T06:52:54;6.43;;;5.82;;
24411;SDS011;12544;46.760;15.942;2023-04-30T06:55:20;6.30;;;5.70;;
24411;SDS011;12544;46.760;15.942;2023-04-30T06:57:45;7.70;;;6.95;;
24411;SDS011;12544;46.760;15.942;2023-04-30T07:00:11;6.10;;;5.10;;
24411;SDS011;12544;46.760;15.942;2023-04-30T07:02:39;7.07;;;5.38;;
24411;SDS011;12544;46.760;15.942;2023-04-30T07:05:05;5.50;;;5.00;;
24411;SDS011;12544;46.760;15.942;2023-04-30T07:07:31;5.38;;;4.78;;
24411;SDS011;12544;46.760;15.942;2023-04-30T07:09:56;5.57;;;4.85;;
24411;SDS011;12544;46.760;15.942;2023-04-30T07:12:22;5.65;;;5.15;;
24411;SDS011;12544;46.760;15.942;2023-04-30T07:14:48;4.97;;;4.47;;
24411;SDS011;12544;46.760;15.942;2023-04-30T07:17:13;6.32;;;5.22;;
24411;SDS011;12544;46.760;15.942;2023-04-30T07:19:39;5.47;;;4.97;;
24411;SDS011;12544;46.760;15.942;2023-04-30T07:22:05;6.78;;;6.07;;
24411;SDS011;12544;46.760;15.942;2023-04-30T07:24:31;5.55;;;5.05;;
24411;SDS011;12544;46.760;15.942;2023-04-30T07:26:56;5.22;;;4.80;;
24411;SDS011;12544;46.760;15.942;2023-04-30T07:29:26;6.05;;;4.80;;
24411;SDS011;12544;46.760;15.942;2023-04-30T07:31:53;4.97;;;4.47;;
24411;SDS011;12544;46.760;15.942;2023-04-30T07:34:19;7.60;;;5.50;;
24411;SDS011;12544;46.760;15.942;2023-04-30T07:36:45;5.15;;;4.72;;
24411;SDS011;12544;46.760;15.942;2023-04-30T07:39:12;4.90;;;4.25;;
24411;SDS011;12544;46.760;15.942;2023-04-30T07:41:37;4.45;;;3.88;;
24411;SDS011;12544;46.760;15.942;2023-04-30T07:44:03;5.28;;;3.88;;
24411;SDS011;12544;46.760;15.942;2023-04-30T07:46:29;4.55;;;4.15;;
24411;SDS011;12544;46.760;15.942;2023-04-30T07:48:55;4.68;;;4.07;;
24411;SDS011;12544;46.760;15.942;2023-04-30T07:51:20;3.78;;;3.22;;
24411;SDS011;12544;46.760;15.942;2023-04-30T07:53:46;3.85;;;3.55;;
24411;SDS011;12544;46.760;15.942;2023-04-30T07:56:12;3.65;;;3.35;;
24411;SDS011;12544;46.760;15.942;2023-04-30T07:58:37;3.88;;;3.33;;
24411;SDS011;12544;46.760;15.942;2023-04-30T08:01:03;3.47;;;3.17;;
24411;SDS011;12544;46.760;15.942;2023-04-30T08:03:29;4.22;;;3.55;;
24411;SDS011;12544;46.760;15.942;2023-04-30T08:05:55;3.17;;;2.88;;
24411;SDS011;12544;46.760;15.942;2023-04-30T08:08:20;4.47;;;3.10;;
24411;SDS011;12544;46.760;15.942;2023-04-30T08:10:46;3.25;;;2.95;;
24411;SDS011;12544;46.760;15.942;2023-04-30T08:13:11;3.55;;;3.08;;
24411;SDS011;12544;46.760;15.942;2023-04-30T08:15:37;4.88;;;3.10;;
24411;SDS011;12544;46.760;15.942;2023-04-30T08:18:04;4.20;;;3.53;;
24411;SDS011;12544;46.760;15.942;2023-04-30T08:20:30;3.38;;;3.08;;
24411;SDS011;12544;46.760;15.942;2023-04-30T08:22:57;3.90;;;2.90;;
24411;SDS011;12544;46.760;15.942;2023-04-30T08:25:22;3.60;;;2.72;;
24411;SDS011;12544;46.760;15.942;2023-04-30T08:27:48;5.07;;;3.38;;
24411;SDS011;12544;46.760;15.942;2023-04-30T08:30:14;3.60;;;2.83;;
24411;SDS011;12544;46.760;15.942;2023-04-30T08:32:39;2.88;;;2.58;;
24411;SDS011;12544;46.760;15.942;2023-04-30T08:35:05;3.80;;;3.15;;
24411;SDS011;12544;46.760;15.942;2023-04-30T08:37:32;3.30;;;2.97;;
24411;SDS011;12544;46.760;15.942;2023-04-30T08:39:58;3.90;;;2.85;;
24411;SDS011;12544;46.760;15.942;2023-04-30T08:42:24;3.42;;;3.13;;
24411;SDS011;12544;46.760;15.942;2023-04-30T08:44:56;3.50;;;3.20;;
24411;SDS011;12544;46.760;15.942;2023-04-30T08:47:24;3.40;;;2.90;;
24411;SDS011;12544;46.760;15.942;2023-04-30T08:49:51;3.85;;;3.55;;
24411;SDS011;12544;46.760;15.942;2023-04-30T08:52:19;4.07;;;3.47;;
24411;SDS011;12544;46.760;15.942;2023-04-30T08:54:46;4.40;;;4.00;;
24411;SDS011;12544;46.760;15.942;2023-04-30T08:57:12;4.20;;;3.80;;
24411;SDS011;12544;46.760;15.942;2023-04-30T08:59:38;3.50;;;3.20;;
24411;SDS011;12544;46.760;15.942;2023-04-30T09:02:04;3.58;;;3.28;;
24411;SDS011;12544;46.760;15.942;2023-04-30T09:04:30;3.60;;;2.60;;
24411;SDS011;12544;46.760;15.942;2023-04-30T09:06:56;3.00;;;2.72;;
24411;SDS011;12544;46.760;15.942;2023-04-30T09:09:26;3.20;;;2.90;;
24411;SDS011;12544;46.760;15.942;2023-04-30T09:12:09;2.97;;;2.70;;
24411;SDS011;12544;46.760;15.942;2023-04-30T09:14:40;4.88;;;4.47;;
24411;SDS011;12544;46.760;15.942;2023-04-30T09:17:06;3.17;;;2.88;;
24411;SDS011;12544;46.760;15.942;2023-04-30T09:19:35;3.88;;;3.40;;
24411;SDS011;12544;46.760;15.942;2023-04-30T09:22:35;3.50;;;3.00;;
24411;SDS011;12544;46.760;15.942;2023-04-30T09:24:53;3.03;;;2.72;;
24411;SDS011;12544;46.760;15.942;2023-04-30T09:27:22;3.83;;;2.70;;
24411;SDS011;12544;46.760;15.942;2023-04-30T09:29:48;3.17;;;2.42;;
24411;SDS011;12544;46.760;15.942;2023-04-30T09:32:14;2.95;;;2.60;;
24411;SDS011;12544;46.760;15.942;2023-04-30T09:34:40;3.20;;;2.90;;
24411;SDS011;12544;46.760;15.942;2023-04-30T09:37:07;3.90;;;3.03;;
24411;SDS011;12544;46.760;15.942;2023-04-30T09:39:34;3.28;;;2.97;;
24411;SDS011;12544;46.760;15.942;2023-04-30T09:42:17;3.53;;;3.10;;
24411;SDS011;12544;46.760;15.942;2023-04-30T09:44:43;3.15;;;2.67;;
24411;SDS011;12544;46.760;15.942;2023-04-30T09:47:13;4.47;;;2.95;;
24411;SDS011;12544;46.760;15.942;2023-04-30T09:49:45;2.58;;;2.38;;
24411;SDS011;12544;46.760;15.942;2023-04-30T09:52:15;6.53;;;4.72;;
24411;SDS011;12544;46.760;15.942;2023-04-30T09:54:43;3.42;;;3.00;;
24411;SDS011;12544;46.760;15.942;2023-04-30T09:57:10;2.97;;;2.67;;
24411;SDS011;12544;46.760;15.942;2023-04-30T09:59:37;3.20;;;2.90;;
24411;SDS011;12544;46.760;15.942;2023-04-30T10:02:09;3.47;;;3.17;;
24411;SDS011;12544;46.760;15.942;2023-04-30T10:04:38;2.53;;;2.33;;
24411;SDS011;12544;46.760;15.942;2023-04-30T10:09:40;2.70;;;2.50;;
24411;SDS011;12544;46.760;15.942;2023-04-30T10:12:42;2.50;;;2.28;;
24411;SDS011;12544;46.760;15.942;2023-04-30T10:15:15;3.00;;;2.53;;
24411;SDS011;12544;46.760;15.942;2023-04-30T10:17:46;3.33;;;3.03;;
24411;SDS011;12544;46.760;15.942;2023-04-30T10:20:17;3.80;;;2.78;;
24411;SDS011;12544;46.760;15.942;2023-04-30T10:22:46;2.97;;;2.67;;
24411;SDS011;12544;46.760;15.942;2023-04-30T10:25:12;3.03;;;2.72;;
24411;SDS011;12544;46.760;15.942;2023-04-30T10:27:38;2.65;;;2.33;;
24411;SDS011;12544;46.760;15.942;2023-04-30T10:30:05;3.28;;;2.47;;
24411;SDS011;12544;46.760;15.942;2023-04-30T10:32:37;2.90;;;2.40;;
24411;SDS011;12544;46.760;15.942;2023-04-30T10:35:13;5.00;;;2.90;;
24411;SDS011;12544;46.760;15.942;2023-04-30T10:37:45;4.10;;;2.75;;
24411;SDS011;12544;46.760;15.942;2023-04-30T10:40:15;3.00;;;2.72;;
24411;SDS011;12544;46.760;15.942;2023-04-30T10:42:46;3.90;;;3.13;;
24411;SDS011;12544;46.760;15.942;2023-04-30T10:45:14;4.43;;;2.58;;
24411;SDS011;12544;46.760;15.942;2023-04-30T10:47:43;3.22;;;2.92;;
24411;SDS011;12544;46.760;15.942;2023-04-30T10:50:10;3.17;;;2.45;;
24411;SDS011;12544;46.760;15.942;2023-04-30T10:52:37;3.67;;;2.83;;
24411;SDS011;12544;46.760;15.942;2023-04-30T10:55:03;2.70;;;2.50;;
24411;SDS011;12544;46.760;15.942;2023-04-30T10:57:31;2.97;;;2.08;;
24411;SDS011;12544;46.760;15.942;2023-04-30T11:02:37;3.60;;;2.50;;
24411;SDS011;12544;46.760;15.942;2023-04-30T11:07:35;3.38;;;2.30;;
24411;SDS011;12544;46.760;15.942;2023-04-30T11:10:01;3.35;;;2.20;;
24411;SDS011;12544;46.760;15.942;2023-04-30T11:12:27;3.40;;;2.63;;
24411;SDS011;12544;46.760;15.942;2023-04-30T11:15:00;2.75;;;2.45;;
24411;SDS011;12544;46.760;15.942;2023-04-30T11:17:31;2.38;;;2.10;;
24411;SDS011;12544;46.760;15.942;2023-04-30T11:20:00;2.72;;;2.53;;
24411;SDS011;12544;46.760;15.942;2023-04-30T11:22:26;2.78;;;2.42;;
24411;SDS011;12544;46.760;15.942;2023-04-30T11:25:09;2.70;;;2.50;;
24411;SDS011;12544;46.760;15.942;2023-04-30T11:27:42;3.05;;;2.30;;
24411;SDS011;12544;46.760;15.942;2023-04-30T11:30:12;2.63;;;2.30;;
24411;SDS011;12544;46.760;15.942;2023-04-30T11:32:40;3.47;;;2.75;;
24411;SDS011;12544;46.760;15.942;2023-04-30T11:35:08;2.55;;;2.33;;
24411;SDS011;12544;46.760;15.942;2023-04-30T11:37:38;2.30;;;2.10;;
24411;SDS011;12544;46.760;15.942;2023-04-30T11:42:32;2.75;;;2.40;;
24411;SDS011;12544;46.760;15.942;2023-04-30T11:45:08;3.13;;;2.83;;
24411;SDS011;12544;46.760;15.942;2023-04-30T11:47:48;3.05;;;2.20;;
24411;SDS011;12544;46.760;15.942;2023-04-30T11:50:21;5.18;;;2.65;;
24411;SDS011;12544;46.760;15.942;2023-04-30T11:52:53;3.78;;;3.03;;
24411;SDS011;12544;46.760;15.942;2023-04-30T11:55:23;2.50;;;2.33;;
24411;SDS011;12544;46.760;15.942;2023-04-30T11:57:51;3.25;;;2.95;;
24411;SDS011;12544;46.760;15.942;2023-04-30T12:00:20;2.85;;;2.63;;
24411;SDS011;12544;46.760;15.942;2023-04-30T12:06:01;4.38;;;2.60;;
24411;SDS011;12544;46.760;15.942;2023-04-30T12:08:27;3.55;;;2.88;;
24411;SDS011;12544;46.760;15.942;2023-04-30T12:10:53;2.60;;;2.40;;
24411;SDS011;12544;46.760;15.942;2023-04-30T12:13:18;2.97;;;2.22;;
24411;SDS011;12544;46.760;15.942;2023-04-30T12:15:55;3.28;;;2.97;;
24411;SDS011;12544;46.760;15.942;2023-04-30T12:18:23;5.65;;;2.95;;
24411;SDS011;12544;46.760;15.942;2023-04-30T12:20:49;2.65;;;2.45;;
24411;SDS011;12544;46.760;15.942;2023-04-30T12:23:15;3.25;;;2.97;;
24411;SDS011;12544;46.760;15.942;2023-04-30T12:25:40;3.72;;;3.28;;
24411;SDS011;12544;46.760;15.942;2023-04-30T12:28:10;3.35;;;2.85;;
24411;SDS011;12544;46.760;15.942;2023-04-30T12:30:36;4.05;;;3.10;;
24411;SDS011;12544;46.760;15.942;2023-04-30T12:33:02;3.42;;;3.13;;
24411;SDS011;12544;46.760;15.942;2023-04-30T12:35:28;4.47;;;2.72;;
24411;SDS011;12544;46.760;15.942;2023-04-30T12:38:03;2.80;;;2.60;;
24411;SDS011;12544;46.760;15.942;2023-04-30T12:40:29;3.22;;;2.58;;
24411;SDS011;12544;46.760;15.942;2023-04-30T12:43:02;2.97;;;2.70;;
24411;SDS011;12544;46.760;15.942;2023-04-30T12:45:48;3.22;;;2.90;;
24411;SDS011;12544;46.760;15.942;2023-04-30T12:48:16;4.15;;;2.65;;
24411;SDS011;12544;46.760;15.942;2023-04-30T12:50:46;3.45;;;2.88;;
24411;SDS011;12544;46.760;15.942;2023-04-30T12:53:33;2.92;;;2.60;;
24411;SDS011;12544;46.760;15.942;2023-04-30T12:56:10;2.90;;;2.60;;
24411;SDS011;12544;46.760;15.942;2023-04-30T12:58:37;4.28;;;3.78;;
24411;SDS011;12544;46.760;15.942;2023-04-30T13:01:03;3.03;;;2.75;;
24411;SDS011;12544;46.760;15.942;2023-04-30T13:03:29;3.10;;;2.80;;
24411;SDS011;12544;46.760;15.942;2023-04-30T13:05:55;3.33;;;2.47;;
24411;SDS011;12544;46.760;15.942;2023-04-30T13:08:22;3.03;;;2.75;;
24411;SDS011;12544;46.760;15.942;2023-04-30T13:10:48;3.55;;;2.90;;
24411;SDS011;12544;46.760;15.942;2023-04-30T13:13:15;2.80;;;2.60;;
24411;SDS011;12544;46.760;15.942;2023-04-30T13:15:42;2.92;;;2.63;;
24411;SDS011;12544;46.760;15.942;2023-04-30T13:18:08;5.57;;;3.10;;
24411;SDS011;12544;46.760;15.942;2023-04-30T13:20:34;2.83;;;2.60;;
24411;SDS011;12544;46.760;15.942;2023-04-30T13:23:00;3.78;;;3.20;;
24411;SDS011;12544;46.760;15.942;2023-04-30T13:25:26;3.47;;;3.05;;
24411;SDS011;12544;46.760;15.942;2023-04-30T13:27:52;4.35;;;2.83;;
24411;SDS011;12544;46.760;15.942;2023-04-30T13:30:17;3.22;;;2.83;;
24411;SDS011;12544;46.760;15.942;2023-04-30T13:32:43;3.92;;;3.47;;
24411;SDS011;12544;46.760;15.942;2023-04-30T13:35:10;3.25;;;2.90;;
24411;SDS011;12544;46.760;15.942;2023-04-30T13:37:36;5.30;;;3.42;;
24411;SDS011;12544;46.760;15.942;2023-04-30T13:40:02;4.05;;;3.63;;
24411;SDS011;12544;46.760;15.942;2023-04-30T13:42:32;3.95;;;2.58;;
24411;SDS011;12544;46.760;15.942;2023-04-30T13:44:58;3.47;;;2.90;;
24411;SDS011;12544;46.760;15.942;2023-04-30T13:47:23;3.42;;;3.08;;
24411;SDS011;12544;46.760;15.942;2023-04-30T13:49:49;3.78;;;3.03;;
24411;SDS011;12544;46.760;15.942;2023-04-30T13:52:15;3.25;;;2.95;;
24411;SDS011;12544;46.760;15.942;2023-04-30T13:54:41;3.35;;;3.05;;
24411;SDS011;12544;46.760;15.942;2023-04-30T13:57:07;2.92;;;2.70;;
24411;SDS011;12544;46.760;15.942;2023-04-30T13:59:33;3.00;;;2.72;;
24411;SDS011;12544;46.760;15.942;2023-04-30T14:01:58;4.40;;;3.08;;
24411;SDS011;12544;46.760;15.942;2023-04-30T14:04:24;3.22;;;2.92;;
24411;SDS011;12544;46.760;15.942;2023-04-30T14:06:50;5.15;;;3.20;;
24411;SDS011;12544;46.760;15.942;2023-04-30T14:09:20;3.72;;;3.35;;
24411;SDS011;12544;46.760;15.942;2023-04-30T14:11:46;3.53;;;3.05;;
24411;SDS011;12544;46.760;15.942;2023-04-30T14:14:11;3.95;;;2.92;;
24411;SDS011;12544;46.760;15.942;2023-04-30T14:16:37;3.22;;;2.92;;
24411;SDS011;12544;46.760;15.942;2023-04-30T14:19:03;4.55;;;2.92;;
24411;SDS011;12544;46.760;15.942;2023-04-30T14:21:29;5.97;;;3.50;;
24411;SDS011;12544;46.760;15.942;2023-04-30T14:23:55;3.13;;;2.83;;
24411;SDS011;12544;46.760;15.942;2023-04-30T14:26:21;4.75;;;3.17;;
24411;SDS011;12544;46.760;15.942;2023-04-30T14:28:47;4.28;;;3.20;;
24411;SDS011;12544;46.760;15.942;2023-04-30T14:31:12;3.33;;;3.00;;
24411;SDS011;12544;46.760;15.942;2023-04-30T14:33:38;3.28;;;2.90;;
24411;SDS011;12544;46.760;15.942;2023-04-30T14:36:04;4.00;;;3.10;;
24411;SDS011;12544;46.760;15.942;2023-04-30T14:38:30;3.15;;;2.70;;
24411;SDS011;12544;46.760;15.942;2023-04-30T14:40:56;6.18;;;2.95;;
24411;SDS011;12544;46.760;15.942;2023-04-30T14:43:25;3.10;;;2.47;;
24411;SDS011;12544;46.760;15.942;2023-04-30T14:45:50;3.38;;;3.08;;
24411;SDS011;12544;46.760;15.942;2023-04-30T14:48:16;3.35;;;2.53;;
24411;SDS011;12544;46.760;15.942;2023-04-30T14:50:42;2.92;;;2.72;;
24411;SDS011;12544;46.760;15.942;2023-04-30T14:53:08;3.53;;;3.20;;
24411;SDS011;12544;46.760;15.942;2023-04-30T14:55:35;3.75;;;3.03;;
24411;SDS011;12544;46.760;15.942;2023-04-30T14:58:01;3.92;;;3.50;;
24411;SDS011;12544;46.760;15.942;2023-04-30T15:00:27;3.47;;;3.17;;
24411;SDS011;12544;46.760;15.942;2023-04-30T15:02:53;3.60;;;3.30;;
24411;SDS011;12544;46.760;15.942;2023-04-30T15:05:19;3.45;;;3.15;;
24411;SDS011;12544;46.760;15.942;2023-04-30T15:07:45;4.07;;;3.25;;
24411;SDS011;12544;46.760;15.942;2023-04-30T15:10:10;3.72;;;3.42;;